Time;durP1;ratioP1;P1;durP2;ratioP2;P2;SDS_P1;SDS_P2;PMS_P1;PMS_P2;Temp;Humidity;BMP_temperature;BMP_pressure;BME280_temperature;BME280_humidity;BME280_pressure;Samples;Min_cycle;Max_cycle;Signal;HPM_P1;HPM_P2
2023/08/15 00:00:44;;;;;;;6.90;6.40;;;25.90;80.70;;;;;;4859119;29;20468;-83
2023/08/15 00:03:13;;;;;;;6.93;6.33;;;25.90;80.60;;;;;;4856215;29;20465;-83
2023/08/15 00:05:41;;;;;;;7.87;6.90;;;25.90;80.60;;;;;;4859623;29;20515;-84
2023/08/15 00:08:09;;;;;;;6.00;5.50;;;26.00;80.30;;;;;;4846363;29;20473;-83
2023/08/15 00:10:39;;;;;;;8.33;7.13;;;26.10;80.00;;;;;;4853733;29;20438;-83
2023/08/15 00:13:07;;;;;;;8.70;7.90;;;26.00;80.10;;;;;;4856898;29;20958;-83
2023/08/15 00:15:36;;;;;;;8.00;7.10;;;25.90;80.20;;;;;;4854639;29;20477;-83
2023/08/15 00:18:04;;;;;;;9.60;8.63;;;25.80;80.40;;;;;;4845378;29;20469;-83
2023/08/15 00:20:32;;;;;;;6.50;6.00;;;25.70;80.70;;;;;;4855986;29;20492;-83
2023/08/15 00:23:01;;;;;;;8.17;7.40;;;25.60;81.10;;;;;;4855673;29;21133;-84
2023/08/15 00:25:29;;;;;;;7.53;6.83;;;25.60;81.30;;;;;;4857414;29;20485;-84
2023/08/15 00:27:59;;;;;;;8.20;7.57;;;25.50;81.60;;;;;;4858128;29;20545;-84
2023/08/15 00:30:27;;;;;;;8.00;7.30;;;25.50;81.50;;;;;;4857088;29;20474;-83
2023/08/15 00:32:55;;;;;;;8.73;8.00;;;25.40;81.50;;;;;;4858316;29;20483;-83
2023/08/15 00:35:24;;;;;;;7.77;7.17;;;25.20;81.70;;;;;;4851711;29;20524;-83
2023/08/15 00:37:52;;;;;;;8.17;7.57;;;25.10;82.10;;;;;;4849737;29;20877;-83
2023/08/15 00:40:20;;;;;;;6.50;6.07;;;25.00;82.30;;;;;;4855602;29;20831;-84
2023/08/15 00:42:49;;;;;;;7.10;6.50;;;24.90;82.50;;;;;;4850123;29;20840;-84
2023/08/15 00:45:18;;;;;;;7.43;6.93;;;24.70;82.90;;;;;;4852858;29;20476;-83
2023/08/15 00:47:47;;;;;;;8.27;7.63;;;24.60;83.30;;;;;;4852387;29;20461;-83
2023/08/15 00:50:16;;;;;;;7.90;7.37;;;24.70;83.30;;;;;;4854322;29;20476;-83
2023/08/15 00:52:44;;;;;;;7.10;6.47;;;24.80;83.00;;;;;;4850872;29;20466;-84
2023/08/15 00:55:12;;;;;;;7.13;6.53;;;24.90;82.60;;;;;;4856817;29;20463;-83
2023/08/15 00:57:41;;;;;;;6.73;6.10;;;24.90;82.50;;;;;;4857125;29;20452;-83
2023/08/15 01:00:11;;;;;;;7.20;6.60;;;24.80;82.60;;;;;;4857763;29;20476;-83
2023/08/15 01:02:40;;;;;;;8.07;7.27;;;24.70;82.70;;;;;;4857384;29;20469;-83
2023/08/15 01:05:09;;;;;;;8.57;6.70;;;24.70;82.90;;;;;;4871703;29;20496;-83
2023/08/15 01:07:37;;;;;;;6.90;6.40;;;24.70;83.10;;;;;;4855377;29;21083;-83
2023/08/15 01:10:08;;;;;;;8.17;6.87;;;24.90;82.80;;;;;;4854148;29;20466;-83
2023/08/15 01:12:45;;;;;;;7.93;7.30;;;25.00;82.50;;;;;;4856504;29;20570;-83
2023/08/15 01:15:17;;;;;;;8.47;7.60;;;25.00;82.80;;;;;;4856929;29;20486;-83
2023/08/15 01:17:57;;;;;;;8.67;7.93;;;25.10;82.80;;;;;;4855982;29;20479;-83
2023/08/15 01:20:31;;;;;;;8.10;7.50;;;25.10;82.80;;;;;;4854881;29;20840;-83
2023/08/15 01:23:02;;;;;;;8.13;7.33;;;25.00;83.10;;;;;;4854999;29;20801;-83
2023/08/15 01:25:38;;;;;;;9.90;9.10;;;25.00;83.30;;;;;;4856710;29;20985;-84
2023/08/15 01:28:07;;;;;;;9.23;8.53;;;25.00;83.50;;;;;;4853110;29;21054;-84
2023/08/15 01:30:36;;;;;;;9.70;8.80;;;24.90;83.60;;;;;;4853354;29;20574;-83
2023/08/15 01:33:10;;;;;;;13.13;10.60;;;24.80;84.00;;;;;;4855727;29;20452;-83
2023/08/15 01:35:43;;;;;;;14.57;13.37;;;24.70;84.10;;;;;;4872030;29;20482;-83
2023/08/15 01:38:28;;;;;;;26.33;23.97;;;24.70;84.10;;;;;;4862313;29;20572;-83
2023/08/15 01:41:00;;;;;;;19.10;17.30;;;24.70;84.40;;;;;;4852020;29;20473;-83
2023/08/15 01:43:30;;;;;;;19.27;17.40;;;24.70;84.60;;;;;;4850551;29;20488;-83
2023/08/15 01:45:58;;;;;;;22.80;20.90;;;24.70;84.70;;;;;;4853111;29;20507;-83
2023/08/15 01:48:27;;;;;;;23.37;21.47;;;24.60;84.90;;;;;;4863402;29;20507;-83
2023/08/15 01:50:55;;;;;;;21.57;19.67;;;24.60;85.10;;;;;;4853807;29;20569;-83
2023/08/15 01:53:24;;;;;;;20.00;17.97;;;24.50;85.30;;;;;;4855223;29;20950;-83
2023/08/15 01:55:53;;;;;;;18.60;17.00;;;24.60;85.00;;;;;;4849201;29;20475;-83
2023/08/15 01:58:22;;;;;;;18.20;16.43;;;24.70;84.60;;;;;;4853741;29;20498;-83
2023/08/15 02:00:51;;;;;;;16.90;15.50;;;24.80;84.30;;;;;;4869291;29;20479;-83
2023/08/15 02:03:19;;;;;;;14.30;13.00;;;24.80;84.10;;;;;;4852945;29;20627;-84
2023/08/15 02:05:47;;;;;;;14.80;13.50;;;24.80;84.00;;;;;;4855707;29;20479;-83
2023/08/15 02:08:16;;;;;;;13.60;12.40;;;24.70;84.20;;;;;;4851137;29;21010;-83
2023/08/15 02:10:44;;;;;;;12.83;11.73;;;24.70;84.70;;;;;;4850534;29;20471;-83
2023/08/15 02:13:12;;;;;;;12.37;11.27;;;24.60;84.90;;;;;;4852552;29;20875;-84
2023/08/15 02:15:42;;;;;;;11.23;10.23;;;24.60;85.10;;;;;;4853239;29;20512;-84
2023/08/15 02:18:11;;;;;;;11.90;10.20;;;24.50;85.40;;;;;;4872253;29;20481;-84
2023/08/15 02:20:39;;;;;;;9.73;8.93;;;24.50;85.50;;;;;;4856426;29;20467;-83
2023/08/15 02:23:07;;;;;;;10.20;9.40;;;24.40;85.70;;;;;;4856876;29;20994;-83
2023/08/15 02:25:36;;;;;;;11.63;10.57;;;24.40;85.90;;;;;;4857387;29;20834;-83
2023/08/15 02:28:04;;;;;;;9.87;9.07;;;24.30;86.00;;;;;;4856836;29;20513;-83
2023/08/15 02:30:37;;;;;;;10.33;9.33;;;24.30;86.20;;;;;;4856202;29;20473;-84
2023/08/15 02:33:07;;;;;;;9.90;9.10;;;24.20;86.40;;;;;;4849169;29;20584;-84
2023/08/15 02:35:40;;;;;;;10.57;9.60;;;24.20;86.50;;;;;;4848275;29;20470;-84
2023/08/15 02:38:08;;;;;;;10.43;9.70;;;24.20;86.70;;;;;;4856937;29;20489;-84
2023/08/15 02:40:38;;;;;;;9.60;8.90;;;24.20;86.70;;;;;;4853604;29;21033;-84
2023/08/15 02:43:06;;;;;;;10.43;9.63;;;24.30;86.60;;;;;;4853806;29;20530;-83
2023/08/15 02:45:35;;;;;;;10.70;9.67;;;24.30;86.50;;;;;;4856675;29;20598;-84
2023/08/15 02:48:03;;;;;;;9.97;9.17;;;24.30;86.50;;;;;;4855114;29;20487;-83
2023/08/15 02:50:33;;;;;;;10.80;9.80;;;24.30;86.30;;;;;;4857845;29;20871;-83
2023/08/15 02:53:01;;;;;;;11.13;10.23;;;24.40;86.10;;;;;;4855394;29;20483;-83
2023/08/15 02:55:30;;;;;;;11.10;10.20;;;24.40;85.90;;;;;;4857555;29;20470;-83
2023/08/15 02:57:58;;;;;;;10.33;9.53;;;24.40;86.00;;;;;;4857401;29;20480;-84
2023/08/15 03:00:26;;;;;;;11.00;10.20;;;24.30;85.90;;;;;;4870294;29;20479;-83
2023/08/15 03:02:55;;;;;;;11.33;10.23;;;24.10;86.30;;;;;;4858642;29;20477;-83
2023/08/15 03:05:23;;;;;;;9.83;9.03;;;24.10;86.20;;;;;;4855567;29;20559;-84
2023/08/15 03:07:52;;;;;;;10.83;9.83;;;24.00;86.30;;;;;;4854797;29;20484;-83
2023/08/15 03:10:21;;;;;;;10.87;9.87;;;24.10;86.10;;;;;;4853311;29;20470;-83
2023/08/15 03:12:49;;;;;;;11.30;10.30;;;24.10;86.10;;;;;;4852978;29;20479;-83
2023/08/15 03:15:17;;;;;;;9.73;8.83;;;23.90;86.70;;;;;;4863977;29;20469;-83
2023/08/15 03:17:46;;;;;;;9.87;9.07;;;23.90;86.80;;;;;;4855252;29;21304;-83
2023/08/15 03:20:14;;;;;;;10.73;9.73;;;23.80;86.60;;;;;;4869142;29;20478;-83
2023/08/15 03:22:43;;;;;;;10.37;9.47;;;23.90;86.50;;;;;;4866669;29;20481;-84
2023/08/15 03:25:13;;;;;;;9.60;8.60;;;23.90;86.40;;;;;;4850877;29;20467;-83
2023/08/15 03:27:43;;;;;;;10.40;9.60;;;24.00;85.90;;;;;;4855580;29;20508;-83
2023/08/15 03:30:12;;;;;;;9.23;8.43;;;24.10;85.50;;;;;;4854896;29;20476;-83
2023/08/15 03:32:41;;;;;;;9.47;8.70;;;24.20;85.20;;;;;;4866028;29;20845;-83
2023/08/15 03:35:11;;;;;;;10.03;9.23;;;24.30;84.90;;;;;;4857156;29;20477;-83
2023/08/15 03:37:41;;;;;;;10.80;9.00;;;24.30;84.70;;;;;;4852537;29;20473;-84
2023/08/15 03:40:10;;;;;;;10.83;9.73;;;24.30;84.70;;;;;;4856983;29;20477;-83
2023/08/15 03:42:40;;;;;;;9.80;8.60;;;24.30;84.60;;;;;;4851151;29;21237;-83
2023/08/15 03:45:09;;;;;;;9.27;8.47;;;24.30;84.70;;;;;;4862728;29;20469;-83
2023/08/15 03:47:37;;;;;;;10.43;9.40;;;24.30;84.50;;;;;;4850366;29;20494;-84
2023/08/15 03:50:06;;;;;;;9.50;8.70;;;24.20;84.80;;;;;;4852470;29;20483;-84
2023/08/15 03:52:35;;;;;;;10.10;9.33;;;24.10;85.00;;;;;;4855430;29;21405;-83
2023/08/15 03:55:04;;;;;;;9.00;8.10;;;24.10;85.00;;;;;;4866493;29;20470;-83
2023/08/15 03:57:34;;;;;;;9.73;8.80;;;24.10;84.90;;;;;;4864082;29;20496;-84
2023/08/15 04:00:05;;;;;;;8.80;8.20;;;24.10;84.80;;;;;;4848326;29;20523;-84
2023/08/15 04:02:40;;;;;;;9.17;8.30;;;24.10;84.70;;;;;;4852814;29;20474;-84
2023/08/15 04:05:09;;;;;;;9.13;8.33;;;24.20;84.70;;;;;;4850409;29;20476;-84
2023/08/15 04:07:37;;;;;;;7.53;6.93;;;24.20;84.60;;;;;;4851414;29;20493;-83
2023/08/15 04:10:06;;;;;;;8.63;7.83;;;24.20;84.70;;;;;;4850394;29;20478;-83
2023/08/15 04:12:34;;;;;;;8.87;8.07;;;24.20;84.50;;;;;;4848108;29;20852;-83
2023/08/15 04:15:05;;;;;;;8.57;7.77;;;24.20;84.50;;;;;;4848341;29;20477;-83
2023/08/15 04:17:33;;;;;;;7.90;7.30;;;24.20;84.60;;;;;;4851001;29;20465;-83
2023/08/15 04:20:02;;;;;;;9.77;8.60;;;24.20;84.60;;;;;;4855013;29;20880;-84
2023/08/15 04:22:31;;;;;;;8.00;7.30;;;24.10;84.90;;;;;;4852121;29;20476;-83
2023/08/15 04:24:59;;;;;;;9.37;8.57;;;24.10;84.90;;;;;;4855693;29;20822;-83
2023/08/15 04:27:27;;;;;;;8.50;7.70;;;24.00;85.20;;;;;;4854148;29;20512;-83
2023/08/15 04:29:56;;;;;;;8.27;7.57;;;23.90;85.40;;;;;;4851888;29;20457;-83
2023/08/15 04:32:25;;;;;;;7.80;7.20;;;23.90;85.50;;;;;;4848697;29;20484;-84
2023/08/15 04:34:54;;;;;;;8.17;7.67;;;24.00;85.30;;;;;;4853459;29;20559;-83
2023/08/15 04:37:22;;;;;;;8.53;7.83;;;24.00;85.20;;;;;;4853366;29;21302;-83
2023/08/15 04:39:51;;;;;;;8.20;7.60;;;24.00;85.20;;;;;;4853485;29;20473;-84
2023/08/15 04:42:20;;;;;;;8.60;7.80;;;23.90;85.20;;;;;;4864813;29;20545;-83
2023/08/15 04:44:48;;;;;;;9.63;8.63;;;24.00;85.30;;;;;;4856598;29;20476;-85
2023/08/15 04:47:18;;;;;;;8.27;7.57;;;24.00;85.10;;;;;;4852068;29;20488;-84
2023/08/15 04:49:48;;;;;;;9.10;8.30;;;24.00;85.30;;;;;;4851945;29;20486;-84
2023/08/15 04:52:17;;;;;;;7.93;7.33;;;24.00;85.50;;;;;;4851859;29;20483;-83
2023/08/15 04:54:45;;;;;;;10.10;9.30;;;24.00;85.90;;;;;;4850084;29;20962;-83
2023/08/15 04:57:14;;;;;;;9.93;9.10;;;23.90;86.50;;;;;;4867404;29;20470;-83
2023/08/15 04:59:42;;;;;;;10.87;10.07;;;23.90;86.60;;;;;;4854358;29;20491;-83
2023/08/15 05:02:11;;;;;;;9.13;8.23;;;23.90;86.90;;;;;;4867051;29;20515;-83
2023/08/15 05:04:39;;;;;;;10.70;9.23;;;23.90;87.10;;;;;;4857083;29;20467;-83
2023/08/15 05:07:09;;;;;;;10.63;9.83;;;24.00;87.10;;;;;;4847792;29;21042;-83
2023/08/15 05:09:39;;;;;;;10.60;9.80;;;24.00;87.20;;;;;;4850368;29;20551;-83
2023/08/15 05:12:08;;;;;;;10.67;9.67;;;24.10;86.90;;;;;;4863415;29;20473;-83
2023/08/15 05:14:37;;;;;;;11.00;10.10;;;24.10;86.70;;;;;;4854790;29;20854;-83
2023/08/15 05:17:05;;;;;;;11.17;10.23;;;24.00;86.90;;;;;;4864285;29;20482;-83
2023/08/15 05:19:33;;;;;;;11.33;10.30;;;24.00;87.10;;;;;;4848529;29;20466;-83
2023/08/15 05:22:02;;;;;;;12.00;10.80;;;24.10;86.80;;;;;;4851489;29;20498;-83
2023/08/15 05:24:32;;;;;;;12.90;11.50;;;24.10;86.80;;;;;;4858806;29;20480;-83
2023/08/15 05:27:00;;;;;;;23.93;21.73;;;24.10;86.80;;;;;;4862381;29;20619;-83
2023/08/15 05:29:28;;;;;;;18.57;16.67;;;24.10;86.70;;;;;;4862900;29;20486;-84
2023/08/15 05:31:57;;;;;;;18.30;16.70;;;24.10;86.90;;;;;;4850407;29;20470;-84
2023/08/15 05:34:25;;;;;;;19.10;16.70;;;24.00;87.10;;;;;;4853345;29;20872;-83
2023/08/15 05:36:56;;;;;;;15.13;13.73;;;24.00;87.10;;;;;;4869243;29;20478;-83
2023/08/15 05:39:25;;;;;;;16.47;14.77;;;24.00;87.50;;;;;;4864404;29;20983;-83
2023/08/15 05:41:54;;;;;;;14.23;12.67;;;24.00;87.70;;;;;;4852370;29;20538;-83
2023/08/15 05:44:23;;;;;;;15.50;14.10;;;24.00;87.70;;;;;;4852156;29;20475;-83
2023/08/15 05:46:51;;;;;;;15.07;13.67;;;24.00;87.60;;;;;;4853397;29;20472;-83
2023/08/15 05:49:19;;;;;;;14.70;13.20;;;24.00;87.60;;;;;;4851859;29;20490;-83
2023/08/15 05:51:47;;;;;;;16.07;14.57;;;24.10;87.40;;;;;;4854412;29;20469;-84
2023/08/15 05:54:16;;;;;;;15.20;13.60;;;24.10;87.60;;;;;;4856901;29;20481;-84
2023/08/15 05:56:44;;;;;;;13.87;12.57;;;24.10;87.60;;;;;;4856700;29;21163;-83
2023/08/15 05:59:14;;;;;;;12.80;11.60;;;24.10;87.90;;;;;;4854679;29;20471;-83
2023/08/15 06:01:42;;;;;;;14.40;12.97;;;24.10;87.50;;;;;;4853695;29;20829;-84
2023/08/15 06:04:10;;;;;;;12.40;11.20;;;24.20;87.80;;;;;;4855927;29;20840;-83
2023/08/15 06:06:39;;;;;;;10.63;9.83;;;24.20;87.50;;;;;;4854390;29;20527;-84
2023/08/15 06:09:07;;;;;;;9.07;8.10;;;24.20;87.00;;;;;;4854129;29;20515;-84
2023/08/15 06:11:35;;;;;;;10.13;9.30;;;24.10;86.60;;;;;;4855927;29;20537;-83
2023/08/15 06:14:03;;;;;;;9.80;9.00;;;24.10;86.80;;;;;;4853989;29;20474;-83
2023/08/15 06:16:33;;;;;;;9.37;8.67;;;24.20;86.70;;;;;;4857880;29;20469;-84
2023/08/15 06:19:04;;;;;;;11.00;10.07;;;24.20;86.80;;;;;;4852022;29;20591;-83
2023/08/15 06:21:32;;;;;;;9.83;9.03;;;24.20;87.20;;;;;;4856910;29;20477;-84
2023/08/15 06:24:00;;;;;;;10.07;9.27;;;24.20;87.50;;;;;;4850559;29;20472;-84
2023/08/15 06:26:28;;;;;;;12.50;11.20;;;24.20;87.30;;;;;;4856540;29;20502;-83
2023/08/15 06:28:57;;;;;;;12.33;11.03;;;24.30;87.00;;;;;;4847696;29;20482;-83
2023/08/15 06:31:25;;;;;;;14.20;12.93;;;24.30;87.00;;;;;;4860554;29;21035;-83
2023/08/15 06:33:55;;;;;;;13.37;12.27;;;24.40;86.70;;;;;;4855257;29;20474;-84
2023/08/15 06:36:23;;;;;;;11.87;10.67;;;24.50;86.40;;;;;;4854499;29;20492;-83
2023/08/15 06:38:51;;;;;;;11.27;10.33;;;24.40;86.60;;;;;;4855152;29;20538;-84
2023/08/15 06:41:20;;;;;;;9.67;8.87;;;24.50;86.10;;;;;;4858261;29;20474;-83
2023/08/15 06:43:50;;;;;;;10.00;9.20;;;24.60;85.70;;;;;;4858587;29;20470;-84
2023/08/15 06:46:18;;;;;;;9.93;8.87;;;24.70;85.70;;;;;;4856461;29;20466;-84
2023/08/15 06:48:47;;;;;;;14.83;13.43;;;24.70;85.60;;;;;;4856470;29;20553;-84
2023/08/15 06:51:16;;;;;;;14.33;13.07;;;24.80;85.60;;;;;;4847655;29;20828;-83
2023/08/15 06:53:45;;;;;;;11.77;10.67;;;24.80;86.20;;;;;;4857271;29;20475;-83
2023/08/15 06:56:13;;;;;;;13.97;12.67;;;24.80;86.00;;;;;;4857932;29;20582;-84
2023/08/15 06:58:41;;;;;;;11.30;10.30;;;24.70;86.10;;;;;;4852730;29;20525;-83
2023/08/15 07:01:12;;;;;;;11.70;10.80;;;24.70;86.40;;;;;;4853796;29;20466;-83
2023/08/15 07:03:40;;;;;;;12.53;11.30;;;24.60;87.00;;;;;;4855282;29;20474;-83
2023/08/15 07:06:08;;;;;;;13.70;12.33;;;24.50;87.20;;;;;;4852232;29;20557;-84
2023/08/15 07:08:38;;;;;;;13.70;12.63;;;24.40;87.40;;;;;;4847208;29;20867;-84
2023/08/15 07:11:06;;;;;;;13.70;12.50;;;24.50;87.40;;;;;;4850800;29;20490;-84
2023/08/15 07:13:35;;;;;;;12.83;11.63;;;24.60;87.10;;;;;;4851044;29;20462;-84
2023/08/15 07:16:03;;;;;;;17.30;15.67;;;24.80;86.40;;;;;;4850360;29;20972;-84
2023/08/15 07:18:31;;;;;;;16.17;14.87;;;24.70;86.50;;;;;;4856311;29;20807;-84
2023/08/15 07:21:02;;;;;;;17.00;15.20;;;24.70;86.60;;;;;;4852550;29;20471;-84
2023/08/15 07:23:30;;;;;;;19.10;17.20;;;24.90;86.20;;;;;;4852405;29;20560;-85
2023/08/15 07:26:00;;;;;;;13.87;12.77;;;25.00;86.20;;;;;;4858495;29;20476;-85
2023/08/15 07:28:28;;;;;;;15.30;13.97;;;25.10;85.60;;;;;;4851410;29;20498;-85
2023/08/15 07:30:57;;;;;;;17.20;15.90;;;25.20;85.40;;;;;;4854921;29;20492;-84
2023/08/15 07:33:26;;;;;;;25.33;22.97;;;25.20;85.30;;;;;;4853173;29;20470;-84
2023/08/15 07:35:54;;;;;;;20.10;18.20;;;25.20;85.50;;;;;;4845052;29;20474;-84
2023/08/15 07:38:23;;;;;;;20.20;18.40;;;25.30;85.60;;;;;;4852916;29;20993;-84
2023/08/15 07:40:51;;;;;;;20.50;18.80;;;25.40;84.80;;;;;;4852112;29;20476;-85
2023/08/15 07:43:23;;;;;;;20.70;19.00;;;25.60;84.40;;;;;;4854336;29;20470;-84
2023/08/15 07:45:52;;;;;;;21.80;19.97;;;25.70;84.00;;;;;;4853809;29;20983;-84
2023/08/15 07:48:20;;;;;;;14.73;13.50;;;25.80;84.10;;;;;;4848925;29;21206;-84
2023/08/15 07:50:48;;;;;;;14.10;12.63;;;25.90;84.00;;;;;;4853595;29;20489;-85
2023/08/15 07:53:16;;;;;;;11.70;10.80;;;26.00;84.60;;;;;;4849303;29;21056;-85
2023/08/15 07:55:45;;;;;;;11.90;10.70;;;26.00;83.60;;;;;;4851992;29;20554;-84
2023/08/15 07:58:13;;;;;;;12.93;11.93;;;26.10;83.50;;;;;;4849248;29;20830;-84
2023/08/15 08:00:43;;;;;;;13.87;12.57;;;26.30;83.50;;;;;;4846045;29;20477;-84
2023/08/15 08:03:12;;;;;;;10.70;9.87;;;26.30;82.90;;;;;;4848455;29;20615;-84
2023/08/15 08:05:40;;;;;;;10.10;9.37;;;26.40;82.70;;;;;;4854353;29;20528;-85
2023/08/15 08:08:09;;;;;;;10.43;9.67;;;26.50;82.30;;;;;;4852461;29;20501;-85
2023/08/15 08:10:37;;;;;;;11.17;10.20;;;26.50;82.70;;;;;;4849313;29;20496;-85
2023/08/15 08:13:06;;;;;;;10.07;9.17;;;26.60;82.00;;;;;;4851318;29;20478;-84
2023/08/15 08:15:34;;;;;;;11.40;10.60;;;26.70;81.50;;;;;;4847187;29;20530;-85
2023/08/15 08:18:04;;;;;;;17.30;15.80;;;26.70;81.40;;;;;;4853916;29;21390;-84
2023/08/15 08:20:32;;;;;;;11.00;10.00;;;26.80;82.00;;;;;;4849939;29;20823;-85
2023/08/15 08:23:01;;;;;;;12.43;11.40;;;26.80;81.60;;;;;;4845900;29;20486;-84
2023/08/15 08:25:29;;;;;;;11.97;10.90;;;26.90;81.60;;;;;;4846976;29;20472;-84
2023/08/15 08:27:57;;;;;;;11.27;10.07;;;26.90;81.80;;;;;;4848952;29;20498;-83
2023/08/15 08:30:26;;;;;;;9.70;8.63;;;27.00;80.90;;;;;;4851968;29;20485;-84
2023/08/15 08:32:57;;;;;;;8.93;8.33;;;27.00;80.60;;;;;;4851105;29;20474;-86
2023/08/15 08:35:27;;;;;;;9.20;8.50;;;27.10;80.90;;;;;;4849217;29;20473;-86
2023/08/15 08:37:56;;;;;;;9.43;8.70;;;27.10;80.70;;;;;;4855304;29;20476;-86
2023/08/15 08:40:25;;;;;;;8.53;7.83;;;27.20;80.20;;;;;;4849573;29;20557;-84
2023/08/15 08:42:53;;;;;;;9.30;8.60;;;27.20;80.40;;;;;;4843901;29;20560;-85
2023/08/15 08:45:27;;;;;;;8.90;8.20;;;27.20;80.30;;;;;;4851329;29;21509;-86
2023/08/15 08:47:56;;;;;;;11.70;9.03;;;27.30;79.80;;;;;;4846580;29;20492;-86
2023/08/15 08:50:25;;;;;;;8.30;7.70;;;27.30;79.80;;;;;;4844909;29;20521;-86
2023/08/15 08:52:55;;;;;;;9.43;8.67;;;27.40;79.40;;;;;;4847537;29;20475;-85
2023/08/15 08:55:25;;;;;;;8.80;8.00;;;27.40;79.20;;;;;;4850625;29;20551;-85
2023/08/15 08:57:55;;;;;;;9.33;8.63;;;27.40;79.20;;;;;;4853675;29;20502;-86
2023/08/15 09:00:28;;;;;;;9.40;8.70;;;27.40;79.20;;;;;;4852480;29;20469;-86
2023/08/15 09:02:58;;;;;;;9.80;8.90;;;27.50;79.80;;;;;;4857942;29;20473;-86
2023/08/15 09:05:27;;;;;;;11.50;10.40;;;27.50;79.20;;;;;;4854113;29;20842;-86
2023/08/15 09:07:57;;;;;;;9.00;8.20;;;27.50;78.70;;;;;;4852113;29;20457;-85
2023/08/15 09:10:26;;;;;;;9.80;8.90;;;27.50;78.20;;;;;;4852884;29;20487;-85
2023/08/15 09:12:59;;;;;;;10.57;8.20;;;27.50;78.30;;;;;;4852389;29;20498;-86
2023/08/15 09:15:28;;;;;;;9.13;8.47;;;27.50;78.10;;;;;;4852759;29;20463;-86
2023/08/15 09:18:01;;;;;;;8.40;7.70;;;27.60;77.80;;;;;;4850121;29;20482;-85
2023/08/15 09:20:29;;;;;;;8.13;7.53;;;27.60;77.70;;;;;;4844981;29;20560;-86
2023/08/15 09:23:00;;;;;;;7.57;6.73;;;27.60;77.10;;;;;;4853035;29;20469;-85
2023/08/15 09:25:30;;;;;;;7.63;6.93;;;27.60;76.50;;;;;;4856792;29;20580;-85
2023/08/15 09:28:00;;;;;;;7.47;6.87;;;27.70;76.20;;;;;;4851897;29;20501;-86
2023/08/15 09:30:28;;;;;;;10.20;7.40;;;27.70;74.80;;;;;;4853852;29;20481;-86
2023/08/15 09:32:57;;;;;;;8.07;7.43;;;27.70;75.50;;;;;;4855309;29;20466;-84
2023/08/15 09:35:25;;;;;;;7.10;6.60;;;27.80;74.80;;;;;;4847965;29;20862;-84
2023/08/15 09:37:53;;;;;;;6.10;5.70;;;27.80;75.60;;;;;;4845356;29;20481;-85
2023/08/15 09:40:24;;;;;;;6.87;6.30;;;27.90;74.50;;;;;;4847696;29;20567;-85
2023/08/15 09:42:54;;;;;;;8.00;7.30;;;27.90;74.10;;;;;;4848368;29;20472;-85
2023/08/15 09:45:23;;;;;;;8.70;7.90;;;28.00;73.90;;;;;;4845369;29;20473;-83
2023/08/15 09:47:51;;;;;;;8.00;7.00;;;28.00;74.00;;;;;;4844916;29;20466;-84
2023/08/15 09:50:19;;;;;;;7.77;7.17;;;28.00;73.90;;;;;;4849448;29;20968;-85
2023/08/15 09:52:48;;;;;;;7.17;6.57;;;28.00;74.70;;;;;;4842523;29;20502;-85
2023/08/15 09:55:20;;;;;;;8.07;7.37;;;28.00;74.40;;;;;;4850949;29;20503;-84
2023/08/15 09:57:50;;;;;;;8.00;7.37;;;28.10;74.60;;;;;;4848219;29;20475;-85
2023/08/15 10:00:20;;;;;;;8.00;7.30;;;28.10;74.80;;;;;;4845223;29;20479;-85
2023/08/15 10:02:53;;;;;;;7.00;6.37;;;28.10;74.60;;;;;;4844615;29;20463;-84
2023/08/15 10:05:24;;;;;;;6.93;6.07;;;28.10;71.40;;;;;;4847626;29;20466;-85
2023/08/15 10:07:53;;;;;;;6.80;6.20;;;28.10;73.20;;;;;;4847868;29;20837;-85
2023/08/15 10:10:21;;;;;;;5.40;4.90;;;28.10;71.60;;;;;;4844979;29;20524;-85
2023/08/15 10:12:52;;;;;;;5.50;5.10;;;28.10;71.80;;;;;;4849282;29;20471;-85
2023/08/15 10:15:22;;;;;;;5.80;5.40;;;28.10;70.90;;;;;;4846121;29;21089;-85
2023/08/15 10:17:51;;;;;;;5.90;5.50;;;28.10;71.70;;;;;;4847148;29;20477;-85
2023/08/15 10:20:21;;;;;;;6.07;5.30;;;28.00;72.50;;;;;;4840495;29;20437;-85
2023/08/15 10:22:54;;;;;;;5.03;4.57;;;28.00;72.10;;;;;;4841544;29;20463;-84
2023/08/15 10:25:39;;;;;;;5.47;4.97;;;27.90;72.20;;;;;;4859131;29;20505;-84
2023/08/15 10:28:12;;;;;;;4.67;4.27;;;27.90;70.10;;;;;;4854991;29;20585;-84
2023/08/15 10:30:42;;;;;;;5.00;4.67;;;27.90;70.40;;;;;;4844566;29;20471;-85
2023/08/15 10:33:18;;;;;;;6.37;4.80;;;28.00;71.30;;;;;;4854032;29;20971;-84
2023/08/15 10:35:52;;;;;;;4.60;4.20;;;28.00;70.20;;;;;;4852901;29;20464;-84
2023/08/15 10:38:22;;;;;;;4.40;4.00;;;28.00;69.90;;;;;;4848904;29;20466;-85
2023/08/15 10:40:52;;;;;;;4.13;3.83;;;28.10;68.70;;;;;;4857296;29;20553;-85
2023/08/15 10:43:25;;;;;;;3.80;3.60;;;28.10;69.70;;;;;;4851644;29;20994;-85
2023/08/15 10:45:57;;;;;;;7.63;3.77;;;28.10;69.60;;;;;;4855568;29;20522;-84
2023/08/15 10:48:54;;;;;;;5.67;4.47;;;28.10;69.70;;;;;;4855705;29;20954;-84
2023/08/15 10:51:33;;;;;;;6.40;3.87;;;28.10;70.70;;;;;;4851579;29;20486;-84
2023/08/15 10:54:02;;;;;;;3.97;3.60;;;28.10;67.60;;;;;;4860813;29;20920;-84
2023/08/15 10:56:32;;;;;;;5.23;4.60;;;28.20;66.90;;;;;;4862031;29;20459;-85
2023/08/15 10:59:07;;;;;;;5.27;4.60;;;28.20;69.00;;;;;;4861852;29;20475;-85
2023/08/15 11:01:37;;;;;;;4.23;3.87;;;28.20;66.30;;;;;;4857338;29;20553;-84
2023/08/15 11:04:08;;;;;;;3.80;3.50;;;28.20;67.90;;;;;;4852183;29;20478;-84
2023/08/15 11:06:42;;;;;;;4.10;3.70;;;28.30;67.70;;;;;;4854787;29;20467;-84
2023/08/15 11:09:10;;;;;;;5.13;4.20;;;28.20;66.50;;;;;;4860394;29;21379;-85
2023/08/15 11:11:39;;;;;;;4.80;4.00;;;28.20;68.70;;;;;;4856388;29;20578;-84
2023/08/15 11:14:17;;;;;;;4.23;3.40;;;28.10;68.50;;;;;;4860570;29;20454;-84
2023/08/15 11:16:46;;;;;;;4.07;3.60;;;28.10;68.20;;;;;;4860579;29;20455;-84
2023/08/15 11:19:16;;;;;;;4.23;3.70;;;28.00;68.40;;;;;;4855892;29;20467;-85
2023/08/15 11:21:45;;;;;;;4.73;4.40;;;28.00;68.60;;;;;;4854685;29;20466;-84
2023/08/15 11:24:13;;;;;;;4.90;4.23;;;27.90;68.90;;;;;;4842541;29;20456;-84
2023/08/15 11:26:41;;;;;;;3.20;2.93;;;27.90;69.10;;;;;;4844462;29;20508;-84
2023/08/15 11:29:12;;;;;;;4.73;3.87;;;27.90;68.00;;;;;;4860877;29;20791;-84
2023/08/15 11:31:42;;;;;;;3.20;3.00;;;27.90;67.90;;;;;;4856203;29;20569;-85
2023/08/15 11:34:12;;;;;;;5.07;4.37;;;27.90;66.80;;;;;;4859279;29;20525;-85
2023/08/15 11:36:40;;;;;;;3.60;3.30;;;27.90;68.70;;;;;;4858894;29;20539;-85
2023/08/15 11:39:12;;;;;;;4.00;3.70;;;27.90;67.70;;;;;;4860325;29;20450;-84
2023/08/15 11:41:41;;;;;;;4.93;3.03;;;27.90;68.10;;;;;;4854811;29;20842;-84
2023/08/15 11:44:10;;;;;;;4.10;3.80;;;27.90;67.20;;;;;;4850084;29;20506;-84
2023/08/15 11:46:38;;;;;;;3.40;3.20;;;27.90;68.60;;;;;;4861170;29;20458;-85
2023/08/15 11:49:24;;;;;;;3.73;3.20;;;27.90;68.50;;;;;;4859332;29;20467;-84
2023/08/15 11:51:52;;;;;;;4.67;4.10;;;27.90;66.30;;;;;;4858316;29;20530;-84
2023/08/15 11:54:27;;;;;;;3.67;3.47;;;27.90;65.70;;;;;;4855260;29;20467;-85
2023/08/15 11:56:55;;;;;;;3.73;3.53;;;27.90;68.00;;;;;;4856115;29;20470;-84
2023/08/15 11:59:24;;;;;;;3.57;3.27;;;27.90;65.50;;;;;;4856389;29;20575;-85
2023/08/15 12:01:52;;;;;;;4.60;3.60;;;27.90;66.90;;;;;;4857123;29;20497;-84
2023/08/15 12:04:20;;;;;;;3.30;3.00;;;27.90;68.00;;;;;;4861330;29;20448;-85
2023/08/15 12:06:51;;;;;;;3.60;3.30;;;27.90;67.30;;;;;;4859532;29;20486;-84
2023/08/15 12:09:19;;;;;;;4.73;3.23;;;27.90;68.00;;;;;;4860216;29;20451;-84
2023/08/15 12:11:47;;;;;;;3.50;3.20;;;27.90;67.10;;;;;;4861121;29;20467;-84
2023/08/15 12:14:19;;;;;;;8.60;4.70;;;27.90;66.80;;;;;;4854756;29;20482;-84
2023/08/15 12:16:47;;;;;;;2.97;2.77;;;27.90;68.10;;;;;;4855936;29;20967;-84
2023/08/15 12:19:17;;;;;;;4.20;3.20;;;27.90;67.30;;;;;;4855206;29;20472;-84
2023/08/15 12:21:52;;;;;;;3.33;3.13;;;27.90;67.90;;;;;;4859192;29;20838;-84
2023/08/15 12:24:21;;;;;;;3.47;3.10;;;27.90;64.90;;;;;;4859743;29;20483;-84
2023/08/15 12:26:49;;;;;;;4.13;3.50;;;28.00;64.90;;;;;;4852710;29;21091;-85
2023/08/15 12:29:17;;;;;;;3.57;3.30;;;28.00;65.00;;;;;;4855935;29;20475;-84
2023/08/15 12:31:46;;;;;;;4.20;3.80;;;28.00;65.90;;;;;;4855156;29;20477;-84
2023/08/15 12:34:14;;;;;;;3.70;3.40;;;28.10;66.30;;;;;;4856109;29;20494;-85
2023/08/15 12:36:42;;;;;;;3.93;3.50;;;28.10;65.30;;;;;;4856607;29;20839;-84
2023/08/15 12:39:12;;;;;;;5.67;3.93;;;28.10;65.20;;;;;;4847388;29;20998;-86
2023/08/15 12:41:40;;;;;;;4.33;3.93;;;28.10;65.00;;;;;;4846872;29;20481;-85
2023/08/15 12:44:09;;;;;;;3.70;3.40;;;28.10;64.90;;;;;;4845345;29;20474;-85
2023/08/15 12:46:37;;;;;;;4.00;3.70;;;28.10;66.00;;;;;;4846622;29;20825;-84
2023/08/15 12:49:06;;;;;;;5.60;3.30;;;28.10;66.50;;;;;;4859726;29;20449;-84
2023/08/15 12:51:34;;;;;;;4.27;3.53;;;28.10;67.30;;;;;;4845898;29;20475;-85